sensor_id;sensor_type;location;lat;lon;timestamp;P1;durP1;ratioP1;P2;durP2;ratioP2
13335;SDS011;6737;51.480;11.962;2023-01-28T00:01:08;5.63;;;2.60;;
13335;SDS011;6737;51.480;11.962;2023-01-28T00:03:36;4.00;;;2.30;;
13335;SDS011;6737;51.480;11.962;2023-01-28T00:06:06;5.63;;;2.30;;
13335;SDS011;6737;51.480;11.962;2023-01-28T00:08:34;5.37;;;2.60;;
13335;SDS011;6737;51.480;11.962;2023-01-28T00:11:00;5.60;;;2.27;;
13335;SDS011;6737;51.480;11.962;2023-01-28T00:13:27;6.97;;;2.47;;
13335;SDS011;6737;51.480;11.962;2023-01-28T00:15:57;4.27;;;2.53;;
13335;SDS011;6737;51.480;11.962;2023-01-28T00:18:30;5.03;;;2.20;;
13335;SDS011;6737;51.480;11.962;2023-01-28T00:20:58;4.93;;;2.40;;
13335;SDS011;6737;51.480;11.962;2023-01-28T00:23:29;5.23;;;2.73;;
13335;SDS011;6737;51.480;11.962;2023-01-28T00:25:57;7.60;;;2.33;;
13335;SDS011;6737;51.480;11.962;2023-01-28T00:28:24;4.37;;;2.10;;
13335;SDS011;6737;51.480;11.962;2023-01-28T00:30:50;4.30;;;2.07;;
13335;SDS011;6737;51.480;11.962;2023-01-28T00:33:16;4.53;;;2.17;;
13335;SDS011;6737;51.480;11.962;2023-01-28T00:35:42;5.27;;;2.03;;
13335;SDS011;6737;51.480;11.962;2023-01-28T00:38:08;4.50;;;2.30;;
13335;SDS011;6737;51.480;11.962;2023-01-28T00:40:34;4.53;;;2.00;;
13335;SDS011;6737;51.480;11.962;2023-01-28T00:43:00;5.87;;;2.30;;
13335;SDS011;6737;51.480;11.962;2023-01-28T00:45:26;7.07;;;1.83;;
13335;SDS011;6737;51.480;11.962;2023-01-28T00:47:52;5.43;;;2.00;;
13335;SDS011;6737;51.480;11.962;2023-01-28T00:50:18;4.77;;;1.90;;
13335;SDS011;6737;51.480;11.962;2023-01-28T00:52:45;5.67;;;1.83;;
13335;SDS011;6737;51.480;11.962;2023-01-28T00:55:12;3.47;;;2.00;;
13335;SDS011;6737;51.480;11.962;2023-01-28T00:57:38;6.50;;;1.80;;
13335;SDS011;6737;51.480;11.962;2023-01-28T01:00:04;7.17;;;2.20;;
13335;SDS011;6737;51.480;11.962;2023-01-28T01:02:31;5.50;;;2.07;;
13335;SDS011;6737;51.480;11.962;2023-01-28T01:04:58;3.97;;;2.20;;
13335;SDS011;6737;51.480;11.962;2023-01-28T01:07:24;6.77;;;2.17;;
13335;SDS011;6737;51.480;11.962;2023-01-28T01:10:02;4.70;;;2.10;;
13335;SDS011;6737;51.480;11.962;2023-01-28T01:12:28;6.33;;;2.10;;
13335;SDS011;6737;51.480;11.962;2023-01-28T01:14:55;7.43;;;2.27;;
13335;SDS011;6737;51.480;11.962;2023-01-28T01:17:21;5.87;;;1.93;;
13335;SDS011;6737;51.480;11.962;2023-01-28T01:19:47;5.77;;;1.90;;
13335;SDS011;6737;51.480;11.962;2023-01-28T01:22:13;5.10;;;2.07;;
13335;SDS011;6737;51.480;11.962;2023-01-28T01:24:38;5.83;;;2.10;;
13335;SDS011;6737;51.480;11.962;2023-01-28T01:27:04;4.53;;;1.80;;
13335;SDS011;6737;51.480;11.962;2023-01-28T01:29:30;5.13;;;1.93;;
13335;SDS011;6737;51.480;11.962;2023-01-28T01:31:58;6.30;;;2.33;;
13335;SDS011;6737;51.480;11.962;2023-01-28T01:34:24;4.00;;;2.10;;
13335;SDS011;6737;51.480;11.962;2023-01-28T01:36:50;5.00;;;1.97;;
13335;SDS011;6737;51.480;11.962;2023-01-28T01:39:16;6.03;;;2.00;;
13335;SDS011;6737;51.480;11.962;2023-01-28T01:41:41;4.40;;;2.10;;
13335;SDS011;6737;51.480;11.962;2023-01-28T01:47:11;4.57;;;1.90;;
13335;SDS011;6737;51.480;11.962;2023-01-28T01:49:38;4.37;;;2.20;;
13335;SDS011;6737;51.480;11.962;2023-01-28T01:52:12;4.30;;;2.07;;
13335;SDS011;6737;51.480;11.962;2023-01-28T01:54:45;4.67;;;2.00;;
13335;SDS011;6737;51.480;11.962;2023-01-28T01:57:15;4.97;;;2.00;;
13335;SDS011;6737;51.480;11.962;2023-01-28T01:59:46;3.40;;;1.60;;
13335;SDS011;6737;51.480;11.962;2023-01-28T02:02:13;3.07;;;1.53;;
13335;SDS011;6737;51.480;11.962;2023-01-28T02:04:40;4.63;;;1.90;;
13335;SDS011;6737;51.480;11.962;2023-01-28T02:07:10;5.50;;;1.80;;
13335;SDS011;6737;51.480;11.962;2023-01-28T02:09:38;4.70;;;1.97;;
13335;SDS011;6737;51.480;11.962;2023-01-28T02:12:10;4.57;;;1.80;;
13335;SDS011;6737;51.480;11.962;2023-01-28T02:14:41;5.43;;;1.83;;
13335;SDS011;6737;51.480;11.962;2023-01-28T02:17:28;4.17;;;1.70;;
13335;SDS011;6737;51.480;11.962;2023-01-28T02:19:56;5.03;;;1.90;;
13335;SDS011;6737;51.480;11.962;2023-01-28T02:31:07;4.73;;;1.70;;
13335;SDS011;6737;51.480;11.962;2023-01-28T02:33:42;5.47;;;1.97;;
13335;SDS011;6737;51.480;11.962;2023-01-28T02:36:35;4.10;;;1.80;;
13335;SDS011;6737;51.480;11.962;2023-01-28T02:39:35;3.00;;;1.67;;
13335;SDS011;6737;51.480;11.962;2023-01-28T02:44:42;5.73;;;1.80;;
13335;SDS011;6737;51.480;11.962;2023-01-28T02:47:09;3.87;;;1.80;;
13335;SDS011;6737;51.480;11.962;2023-01-28T02:49:54;3.63;;;1.60;;
13335;SDS011;6737;51.480;11.962;2023-01-28T02:55:29;3.03;;;1.73;;
13335;SDS011;6737;51.480;11.962;2023-01-28T03:03:32;4.30;;;1.83;;
13335;SDS011;6737;51.480;11.962;2023-01-28T03:06:19;3.07;;;1.63;;
13335;SDS011;6737;51.480;11.962;2023-01-28T03:08:50;3.63;;;1.53;;
13335;SDS011;6737;51.480;11.962;2023-01-28T03:12:28;5.17;;;1.73;;
13335;SDS011;6737;51.480;11.962;2023-01-28T03:15:02;3.17;;;1.60;;
13335;SDS011;6737;51.480;11.962;2023-01-28T03:18:01;4.00;;;1.80;;
13335;SDS011;6737;51.480;11.962;2023-01-28T03:23:37;4.27;;;1.57;;
13335;SDS011;6737;51.480;11.962;2023-01-28T03:26:27;3.50;;;1.53;;
13335;SDS011;6737;51.480;11.962;2023-01-28T03:29:17;3.77;;;1.70;;
13335;SDS011;6737;51.480;11.962;2023-01-28T03:32:03;4.83;;;1.70;;
13335;SDS011;6737;51.480;11.962;2023-01-28T03:34:49;3.70;;;1.80;;
13335;SDS011;6737;51.480;11.962;2023-01-28T03:37:34;4.70;;;1.80;;
13335;SDS011;6737;51.480;11.962;2023-01-28T03:40:01;4.67;;;2.17;;
13335;SDS011;6737;51.480;11.962;2023-01-28T03:42:31;2.70;;;1.70;;
13335;SDS011;6737;51.480;11.962;2023-01-28T03:44:57;4.77;;;2.27;;
13335;SDS011;6737;51.480;11.962;2023-01-28T03:47:26;3.07;;;1.60;;
13335;SDS011;6737;51.480;11.962;2023-01-28T03:49:55;6.20;;;2.23;;
13335;SDS011;6737;51.480;11.962;2023-01-28T03:52:27;3.43;;;1.87;;
13335;SDS011;6737;51.480;11.962;2023-01-28T03:54:56;5.57;;;2.10;;
13335;SDS011;6737;51.480;11.962;2023-01-28T03:57:23;3.87;;;1.70;;
13335;SDS011;6737;51.480;11.962;2023-01-28T03:59:51;3.60;;;1.50;;
13335;SDS011;6737;51.480;11.962;2023-01-28T04:02:18;6.20;;;1.93;;
13335;SDS011;6737;51.480;11.962;2023-01-28T04:04:45;3.77;;;1.50;;
13335;SDS011;6737;51.480;11.962;2023-01-28T04:07:11;5.77;;;2.10;;
13335;SDS011;6737;51.480;11.962;2023-01-28T04:09:41;3.93;;;1.80;;
13335;SDS011;6737;51.480;11.962;2023-01-28T04:12:07;3.60;;;1.80;;
13335;SDS011;6737;51.480;11.962;2023-01-28T04:14:33;7.07;;;1.87;;
13335;SDS011;6737;51.480;11.962;2023-01-28T04:16:59;4.83;;;1.80;;
13335;SDS011;6737;51.480;11.962;2023-01-28T04:19:25;3.97;;;1.83;;
13335;SDS011;6737;51.480;11.962;2023-01-28T04:21:53;4.23;;;1.93;;
13335;SDS011;6737;51.480;11.962;2023-01-28T04:24:20;3.77;;;1.90;;
13335;SDS011;6737;51.480;11.962;2023-01-28T04:26:47;5.47;;;1.87;;
13335;SDS011;6737;51.480;11.962;2023-01-28T04:29:13;5.70;;;2.20;;
13335;SDS011;6737;51.480;11.962;2023-01-28T04:31:39;4.63;;;2.00;;
13335;SDS011;6737;51.480;11.962;2023-01-28T04:34:05;4.30;;;1.90;;
13335;SDS011;6737;51.480;11.962;2023-01-28T04:36:30;4.23;;;1.97;;
13335;SDS011;6737;51.480;11.962;2023-01-28T04:38:56;6.00;;;1.90;;
13335;SDS011;6737;51.480;11.962;2023-01-28T04:41:22;3.73;;;1.80;;
13335;SDS011;6737;51.480;11.962;2023-01-28T04:43:47;3.67;;;1.53;;
13335;SDS011;6737;51.480;11.962;2023-01-28T04:46:14;5.13;;;2.23;;
13335;SDS011;6737;51.480;11.962;2023-01-28T04:48:40;3.63;;;1.87;;
13335;SDS011;6737;51.480;11.962;2023-01-28T04:51:06;5.60;;;2.03;;
13335;SDS011;6737;51.480;11.962;2023-01-28T04:53:32;5.87;;;1.93;;
13335;SDS011;6737;51.480;11.962;2023-01-28T04:55:58;3.87;;;1.80;;
13335;SDS011;6737;51.480;11.962;2023-01-28T04:58:24;5.27;;;1.97;;
13335;SDS011;6737;51.480;11.962;2023-01-28T05:00:52;5.73;;;2.00;;
13335;SDS011;6737;51.480;11.962;2023-01-28T05:03:20;4.93;;;1.90;;
13335;SDS011;6737;51.480;11.962;2023-01-28T05:05:45;4.53;;;2.00;;
13335;SDS011;6737;51.480;11.962;2023-01-28T05:08:11;3.63;;;2.00;;
13335;SDS011;6737;51.480;11.962;2023-01-28T05:10:37;4.60;;;1.90;;
13335;SDS011;6737;51.480;11.962;2023-01-28T05:13:04;4.30;;;2.10;;
13335;SDS011;6737;51.480;11.962;2023-01-28T05:15:30;3.87;;;1.90;;
13335;SDS011;6737;51.480;11.962;2023-01-28T05:17:56;5.60;;;2.13;;
13335;SDS011;6737;51.480;11.962;2023-01-28T05:20:22;4.23;;;2.00;;
13335;SDS011;6737;51.480;11.962;2023-01-28T05:22:48;5.40;;;2.00;;
13335;SDS011;6737;51.480;11.962;2023-01-28T05:25:13;4.17;;;1.60;;
13335;SDS011;6737;51.480;11.962;2023-01-28T05:27:39;4.13;;;2.10;;
13335;SDS011;6737;51.480;11.962;2023-01-28T05:30:05;5.30;;;1.90;;
13335;SDS011;6737;51.480;11.962;2023-01-28T05:32:31;8.60;;;2.20;;
13335;SDS011;6737;51.480;11.962;2023-01-28T05:34:58;4.30;;;2.10;;
13335;SDS011;6737;51.480;11.962;2023-01-28T05:37:23;6.50;;;2.03;;
13335;SDS011;6737;51.480;11.962;2023-01-28T05:39:49;6.20;;;2.10;;
13335;SDS011;6737;51.480;11.962;2023-01-28T05:42:15;4.13;;;2.00;;
13335;SDS011;6737;51.480;11.962;2023-01-28T05:44:42;6.43;;;2.37;;
13335;SDS011;6737;51.480;11.962;2023-01-28T05:47:08;4.37;;;2.10;;
13335;SDS011;6737;51.480;11.962;2023-01-28T05:49:34;6.23;;;1.87;;
13335;SDS011;6737;51.480;11.962;2023-01-28T05:52:00;5.43;;;1.93;;
13335;SDS011;6737;51.480;11.962;2023-01-28T05:54:26;4.57;;;1.83;;
13335;SDS011;6737;51.480;11.962;2023-01-28T05:56:52;4.77;;;2.10;;
13335;SDS011;6737;51.480;11.962;2023-01-28T05:59:18;4.07;;;1.80;;
13335;SDS011;6737;51.480;11.962;2023-01-28T06:01:44;4.43;;;1.60;;
13335;SDS011;6737;51.480;11.962;2023-01-28T06:04:10;4.73;;;1.73;;
13335;SDS011;6737;51.480;11.962;2023-01-28T06:06:35;4.50;;;1.80;;
13335;SDS011;6737;51.480;11.962;2023-01-28T06:09:01;4.33;;;1.90;;
13335;SDS011;6737;51.480;11.962;2023-01-28T06:11:27;2.67;;;1.60;;
13335;SDS011;6737;51.480;11.962;2023-01-28T06:13:52;3.10;;;1.80;;
13335;SDS011;6737;51.480;11.962;2023-01-28T06:16:18;3.87;;;1.87;;
13335;SDS011;6737;51.480;11.962;2023-01-28T06:18:44;5.17;;;2.17;;
13335;SDS011;6737;51.480;11.962;2023-01-28T06:21:10;3.57;;;1.90;;
13335;SDS011;6737;51.480;11.962;2023-01-28T06:23:36;3.80;;;1.63;;
13335;SDS011;6737;51.480;11.962;2023-01-28T06:26:01;3.43;;;2.00;;
13335;SDS011;6737;51.480;11.962;2023-01-28T06:28:27;3.40;;;1.77;;
13335;SDS011;6737;51.480;11.962;2023-01-28T06:30:53;3.40;;;1.80;;
13335;SDS011;6737;51.480;11.962;2023-01-28T06:33:19;4.93;;;1.70;;
13335;SDS011;6737;51.480;11.962;2023-01-28T06:35:46;3.57;;;1.80;;
13335;SDS011;6737;51.480;11.962;2023-01-28T06:38:12;4.93;;;1.70;;
13335;SDS011;6737;51.480;11.962;2023-01-28T06:40:38;2.87;;;1.80;;
13335;SDS011;6737;51.480;11.962;2023-01-28T06:43:05;3.30;;;1.80;;
13335;SDS011;6737;51.480;11.962;2023-01-28T06:45:31;5.40;;;1.90;;
13335;SDS011;6737;51.480;11.962;2023-01-28T06:47:57;5.47;;;2.10;;
13335;SDS011;6737;51.480;11.962;2023-01-28T06:50:23;3.93;;;1.87;;
13335;SDS011;6737;51.480;11.962;2023-01-28T06:52:49;5.77;;;2.10;;
13335;SDS011;6737;51.480;11.962;2023-01-28T06:55:14;3.87;;;1.90;;
13335;SDS011;6737;51.480;11.962;2023-01-28T06:57:40;5.80;;;1.97;;
13335;SDS011;6737;51.480;11.962;2023-01-28T07:00:07;6.90;;;2.10;;
13335;SDS011;6737;51.480;11.962;2023-01-28T07:02:36;5.20;;;2.23;;
13335;SDS011;6737;51.480;11.962;2023-01-28T07:05:02;6.83;;;2.83;;
13335;SDS011;6737;51.480;11.962;2023-01-28T07:07:29;5.50;;;1.90;;
13335;SDS011;6737;51.480;11.962;2023-01-28T07:09:55;4.93;;;2.00;;
13335;SDS011;6737;51.480;11.962;2023-01-28T07:12:21;5.27;;;1.93;;
13335;SDS011;6737;51.480;11.962;2023-01-28T07:14:46;3.43;;;2.20;;
13335;SDS011;6737;51.480;11.962;2023-01-28T07:17:12;4.40;;;2.50;;
13335;SDS011;6737;51.480;11.962;2023-01-28T07:19:38;6.20;;;2.40;;
13335;SDS011;6737;51.480;11.962;2023-01-28T07:22:03;5.97;;;2.30;;
13335;SDS011;6737;51.480;11.962;2023-01-28T07:24:29;6.73;;;2.50;;
13335;SDS011;6737;51.480;11.962;2023-01-28T07:26:55;6.67;;;2.33;;
13335;SDS011;6737;51.480;11.962;2023-01-28T07:29:21;4.87;;;2.57;;
13335;SDS011;6737;51.480;11.962;2023-01-28T07:31:47;4.60;;;2.40;;
13335;SDS011;6737;51.480;11.962;2023-01-28T07:34:12;5.10;;;2.27;;
13335;SDS011;6737;51.480;11.962;2023-01-28T07:36:39;4.17;;;2.13;;
13335;SDS011;6737;51.480;11.962;2023-01-28T07:39:05;5.90;;;2.40;;
13335;SDS011;6737;51.480;11.962;2023-01-28T07:41:34;5.27;;;2.20;;
13335;SDS011;6737;51.480;11.962;2023-01-28T07:43:59;5.13;;;2.07;;
13335;SDS011;6737;51.480;11.962;2023-01-28T07:46:25;8.13;;;2.73;;
13335;SDS011;6737;51.480;11.962;2023-01-28T07:48:52;4.77;;;2.40;;
13335;SDS011;6737;51.480;11.962;2023-01-28T07:51:18;4.20;;;2.40;;
13335;SDS011;6737;51.480;11.962;2023-01-28T07:53:43;6.67;;;2.70;;
13335;SDS011;6737;51.480;11.962;2023-01-28T07:56:09;4.47;;;2.17;;
13335;SDS011;6737;51.480;11.962;2023-01-28T07:58:35;4.30;;;2.17;;
13335;SDS011;6737;51.480;11.962;2023-01-28T08:01:01;6.87;;;2.67;;
13335;SDS011;6737;51.480;11.962;2023-01-28T08:03:28;6.53;;;2.53;;
13335;SDS011;6737;51.480;11.962;2023-01-28T08:05:54;4.13;;;2.40;;
13335;SDS011;6737;51.480;11.962;2023-01-28T08:08:21;4.57;;;2.43;;
13335;SDS011;6737;51.480;11.962;2023-01-28T08:10:48;7.70;;;2.90;;
13335;SDS011;6737;51.480;11.962;2023-01-28T08:13:14;6.80;;;2.63;;
13335;SDS011;6737;51.480;11.962;2023-01-28T08:15:41;6.73;;;2.40;;
13335;SDS011;6737;51.480;11.962;2023-01-28T08:18:07;4.53;;;2.20;;
13335;SDS011;6737;51.480;11.962;2023-01-28T08:20:34;5.07;;;2.60;;
13335;SDS011;6737;51.480;11.962;2023-01-28T08:23:07;7.63;;;3.10;;
13335;SDS011;6737;51.480;11.962;2023-01-28T08:25:38;3.77;;;2.63;;
13335;SDS011;6737;51.480;11.962;2023-01-28T08:28:04;5.37;;;2.60;;
13335;SDS011;6737;51.480;11.962;2023-01-28T08:30:31;6.50;;;2.53;;
13335;SDS011;6737;51.480;11.962;2023-01-28T08:32:58;4.47;;;2.70;;
13335;SDS011;6737;51.480;11.962;2023-01-28T08:35:25;4.27;;;2.27;;
13335;SDS011;6737;51.480;11.962;2023-01-28T08:37:51;5.70;;;2.70;;
13335;SDS011;6737;51.480;11.962;2023-01-28T08:40:18;8.30;;;2.90;;
13335;SDS011;6737;51.480;11.962;2023-01-28T08:42:47;3.53;;;2.47;;
13335;SDS011;6737;51.480;11.962;2023-01-28T08:45:15;6.17;;;3.07;;
13335;SDS011;6737;51.480;11.962;2023-01-28T08:47:51;5.60;;;2.50;;
13335;SDS011;6737;51.480;11.962;2023-01-28T08:50:19;4.50;;;2.50;;
13335;SDS011;6737;51.480;11.962;2023-01-28T08:52:46;4.37;;;2.53;;
13335;SDS011;6737;51.480;11.962;2023-01-28T08:55:14;3.87;;;2.80;;
13335;SDS011;6737;51.480;11.962;2023-01-28T08:57:40;8.00;;;2.93;;
13335;SDS011;6737;51.480;11.962;2023-01-28T09:00:07;5.47;;;2.97;;
13335;SDS011;6737;51.480;11.962;2023-01-28T09:02:36;5.60;;;2.80;;
13335;SDS011;6737;51.480;11.962;2023-01-28T09:05:03;3.70;;;2.60;;
13335;SDS011;6737;51.480;11.962;2023-01-28T09:07:30;6.77;;;2.73;;
13335;SDS011;6737;51.480;11.962;2023-01-28T09:09:56;7.40;;;3.10;;
13335;SDS011;6737;51.480;11.962;2023-01-28T09:12:22;5.33;;;2.90;;
13335;SDS011;6737;51.480;11.962;2023-01-28T09:14:48;6.37;;;3.00;;
13335;SDS011;6737;51.480;11.962;2023-01-28T09:17:13;4.87;;;2.73;;
13335;SDS011;6737;51.480;11.962;2023-01-28T09:19:39;6.13;;;3.10;;
13335;SDS011;6737;51.480;11.962;2023-01-28T09:22:05;4.73;;;3.03;;
13335;SDS011;6737;51.480;11.962;2023-01-28T09:24:31;6.70;;;3.13;;
13335;SDS011;6737;51.480;11.962;2023-01-28T09:26:56;4.53;;;2.90;;
13335;SDS011;6737;51.480;11.962;2023-01-28T09:29:22;5.20;;;3.33;;
13335;SDS011;6737;51.480;11.962;2023-01-28T09:31:47;7.60;;;3.20;;
13335;SDS011;6737;51.480;11.962;2023-01-28T09:34:13;4.67;;;3.20;;
13335;SDS011;6737;51.480;11.962;2023-01-28T09:36:39;6.93;;;3.30;;
13335;SDS011;6737;51.480;11.962;2023-01-28T09:39:05;4.77;;;2.83;;
13335;SDS011;6737;51.480;11.962;2023-01-28T09:41:40;6.50;;;3.10;;
13335;SDS011;6737;51.480;11.962;2023-01-28T09:47:04;4.07;;;2.70;;
13335;SDS011;6737;51.480;11.962;2023-01-28T09:49:44;3.90;;;2.47;;
13335;SDS011;6737;51.480;11.962;2023-01-28T09:52:14;4.20;;;2.30;;
13335;SDS011;6737;51.480;11.962;2023-01-28T09:54:50;4.23;;;2.53;;
13335;SDS011;6737;51.480;11.962;2023-01-28T09:57:25;3.70;;;2.00;;
13335;SDS011;6737;51.480;11.962;2023-01-28T10:00:01;3.80;;;2.10;;
13335;SDS011;6737;51.480;11.962;2023-01-28T10:13:52;4.67;;;2.50;;
13335;SDS011;6737;51.480;11.962;2023-01-28T10:16:28;5.40;;;2.30;;
13335;SDS011;6737;51.480;11.962;2023-01-28T10:19:24;5.33;;;2.20;;
13335;SDS011;6737;51.480;11.962;2023-01-28T10:24:43;4.10;;;2.20;;
13335;SDS011;6737;51.480;11.962;2023-01-28T10:27:18;3.53;;;2.20;;
13335;SDS011;6737;51.480;11.962;2023-01-28T10:29:46;7.73;;;2.30;;
13335;SDS011;6737;51.480;11.962;2023-01-28T10:32:15;4.40;;;2.53;;
13335;SDS011;6737;51.480;11.962;2023-01-28T10:34:42;3.33;;;1.70;;
13335;SDS011;6737;51.480;11.962;2023-01-28T10:37:08;3.73;;;2.17;;
13335;SDS011;6737;51.480;11.962;2023-01-28T10:39:38;5.90;;;1.93;;
13335;SDS011;6737;51.480;11.962;2023-01-28T10:42:37;2.70;;;1.80;;
13335;SDS011;6737;51.480;11.962;2023-01-28T10:47:34;5.23;;;2.20;;
13335;SDS011;6737;51.480;11.962;2023-01-28T10:50:05;4.77;;;2.20;;
13335;SDS011;6737;51.480;11.962;2023-01-28T10:52:51;3.07;;;2.07;;
13335;SDS011;6737;51.480;11.962;2023-01-28T10:55:22;3.37;;;1.93;;
13335;SDS011;6737;51.480;11.962;2023-01-28T10:57:51;4.43;;;1.60;;
13335;SDS011;6737;51.480;11.962;2023-01-28T11:02:51;4.77;;;2.00;;
13335;SDS011;6737;51.480;11.962;2023-01-28T11:05:19;3.00;;;1.83;;
13335;SDS011;6737;51.480;11.962;2023-01-28T11:08:01;6.47;;;2.20;;
13335;SDS011;6737;51.480;11.962;2023-01-28T11:10:33;6.20;;;2.47;;
13335;SDS011;6737;51.480;11.962;2023-01-28T11:13:02;4.97;;;2.73;;
13335;SDS011;6737;51.480;11.962;2023-01-28T11:15:29;5.73;;;2.13;;
13335;SDS011;6737;51.480;11.962;2023-01-28T11:17:59;4.07;;;2.23;;
13335;SDS011;6737;51.480;11.962;2023-01-28T11:20:29;2.50;;;1.40;;
13335;SDS011;6737;51.480;11.962;2023-01-28T11:23:01;6.37;;;2.13;;
13335;SDS011;6737;51.480;11.962;2023-01-28T11:27:52;3.57;;;1.80;;
13335;SDS011;6737;51.480;11.962;2023-01-28T11:30:26;4.67;;;2.90;;
13335;SDS011;6737;51.480;11.962;2023-01-28T11:35:35;6.10;;;3.07;;
13335;SDS011;6737;51.480;11.962;2023-01-28T11:38:00;5.83;;;3.60;;
13335;SDS011;6737;51.480;11.962;2023-01-28T11:40:27;6.87;;;3.67;;
13335;SDS011;6737;51.480;11.962;2023-01-28T11:42:53;6.13;;;3.60;;
13335;SDS011;6737;51.480;11.962;2023-01-28T11:45:28;5.67;;;3.60;;
13335;SDS011;6737;51.480;11.962;2023-01-28T11:51:03;6.37;;;3.70;;
13335;SDS011;6737;51.480;11.962;2023-01-28T11:59:08;4.40;;;3.30;;
13335;SDS011;6737;51.480;11.962;2023-01-28T12:01:56;5.33;;;3.20;;
13335;SDS011;6737;51.480;11.962;2023-01-28T12:04:42;5.40;;;3.10;;
13335;SDS011;6737;51.480;11.962;2023-01-28T12:07:27;4.93;;;3.33;;
13335;SDS011;6737;51.480;11.962;2023-01-28T12:09:59;6.13;;;3.53;;
13335;SDS011;6737;51.480;11.962;2023-01-28T12:12:38;6.20;;;3.03;;
13335;SDS011;6737;51.480;11.962;2023-01-28T12:17:49;7.00;;;3.93;;
13335;SDS011;6737;51.480;11.962;2023-01-28T12:20:57;5.70;;;3.00;;
13335;SDS011;6737;51.480;11.962;2023-01-28T12:26:16;5.87;;;2.43;;
13335;SDS011;6737;51.480;11.962;2023-01-28T12:32:22;5.50;;;2.73;;
13335;SDS011;6737;51.480;11.962;2023-01-28T12:37:58;9.70;;;3.00;;
13335;SDS011;6737;51.480;11.962;2023-01-28T12:48:51;6.30;;;3.77;;
13335;SDS011;6737;51.480;11.962;2023-01-28T12:51:28;6.20;;;3.40;;
13335;SDS011;6737;51.480;11.962;2023-01-28T12:56:30;6.53;;;3.77;;
13335;SDS011;6737;51.480;11.962;2023-01-28T12:59:20;5.40;;;3.73;;
13335;SDS011;6737;51.480;11.962;2023-01-28T13:02:02;7.90;;;3.70;;
13335;SDS011;6737;51.480;11.962;2023-01-28T13:04:43;7.73;;;3.77;;
13335;SDS011;6737;51.480;11.962;2023-01-28T13:10:12;7.93;;;3.73;;
13335;SDS011;6737;51.480;11.962;2023-01-28T13:12:42;7.13;;;4.10;;
13335;SDS011;6737;51.480;11.962;2023-01-28T13:15:12;8.20;;;4.63;;
13335;SDS011;6737;51.480;11.962;2023-01-28T13:17:52;6.43;;;4.07;;
13335;SDS011;6737;51.480;11.962;2023-01-28T13:28:48;7.37;;;4.27;;
13335;SDS011;6737;51.480;11.962;2023-01-28T13:31:16;6.40;;;4.27;;
13335;SDS011;6737;51.480;11.962;2023-01-28T13:36:26;5.97;;;4.27;;
13335;SDS011;6737;51.480;11.962;2023-01-28T13:39:02;7.23;;;4.63;;
13335;SDS011;6737;51.480;11.962;2023-01-28T13:41:42;7.70;;;4.70;;
13335;SDS011;6737;51.480;11.962;2023-01-28T13:44:16;6.73;;;4.17;;
13335;SDS011;6737;51.480;11.962;2023-01-28T13:46:45;7.10;;;3.60;;
13335;SDS011;6737;51.480;11.962;2023-01-28T13:49:13;6.30;;;3.23;;
13335;SDS011;6737;51.480;11.962;2023-01-28T13:54:43;5.10;;;2.97;;
13335;SDS011;6737;51.480;11.962;2023-01-28T13:57:42;2.97;;;2.10;;
13335;SDS011;6737;51.480;11.962;2023-01-28T14:23:03;4.13;;;1.47;;
13335;SDS011;6737;51.480;11.962;2023-01-28T14:33:38;1.77;;;1.27;;
13335;SDS011;6737;51.480;11.962;2023-01-28T14:36:08;4.00;;;1.40;;
13335;SDS011;6737;51.480;11.962;2023-01-28T14:38:37;2.53;;;1.30;;
13335;SDS011;6737;51.480;11.962;2023-01-28T14:41:04;2.80;;;1.27;;
13335;SDS011;6737;51.480;11.962;2023-01-28T14:43:31;2.30;;;1.17;;
13335;SDS011;6737;51.480;11.962;2023-01-28T14:46:16;2.17;;;1.20;;
13335;SDS011;6737;51.480;11.962;2023-01-28T14:49:04;2.97;;;1.10;;
13335;SDS011;6737;51.480;11.962;2023-01-28T14:52:02;1.63;;;1.00;;
13335;SDS011;6737;51.480;11.962;2023-01-28T14:57:40;1.37;;;1.10;;
13335;SDS011;6737;51.480;11.962;2023-01-28T15:02:46;1.53;;;0.97;;
13335;SDS011;6737;51.480;11.962;2023-01-28T15:05:16;1.73;;;1.07;;
13335;SDS011;6737;51.480;11.962;2023-01-28T15:07:44;1.37;;;0.90;;
13335;SDS011;6737;51.480;11.962;2023-01-28T15:10:16;2.83;;;1.00;;
13335;SDS011;6737;51.480;11.962;2023-01-28T15:12:46;2.00;;;0.80;;
13335;SDS011;6737;51.480;11.962;2023-01-28T15:15:18;2.43;;;1.13;;
13335;SDS011;6737;51.480;11.962;2023-01-28T15:17:46;2.30;;;1.10;;
13335;SDS011;6737;51.480;11.962;2023-01-28T15:20:17;3.23;;;1.03;;
13335;SDS011;6737;51.480;11.962;2023-01-28T15:22:45;2.17;;;1.10;;
13335;SDS011;6737;51.480;11.962;2023-01-28T15:25:19;2.17;;;1.10;;
13335;SDS011;6737;51.480;11.962;2023-01-28T15:27:46;3.23;;;1.20;;
13335;SDS011;6737;51.480;11.962;2023-01-28T15:30:32;1.50;;;1.10;;
13335;SDS011;6737;51.480;11.962;2023-01-28T15:33:03;2.20;;;1.00;;
13335;SDS011;6737;51.480;11.962;2023-01-28T15:35:35;2.03;;;0.90;;
13335;SDS011;6737;51.480;11.962;2023-01-28T15:38:01;2.33;;;1.00;;
13335;SDS011;6737;51.480;11.962;2023-01-28T15:40:27;1.17;;;0.90;;
13335;SDS011;6737;51.480;11.962;2023-01-28T15:42:55;1.00;;;0.90;;
13335;SDS011;6737;51.480;11.962;2023-01-28T15:45:23;2.50;;;0.90;;
13335;SDS011;6737;51.480;11.962;2023-01-28T15:47:52;2.73;;;1.50;;
13335;SDS011;6737;51.480;11.962;2023-01-28T15:50:28;2.77;;;1.30;;
13335;SDS011;6737;51.480;11.962;2023-01-28T15:52:54;2.47;;;1.10;;
13335;SDS011;6737;51.480;11.962;2023-01-28T15:55:30;3.23;;;1.10;;
13335;SDS011;6737;51.480;11.962;2023-01-28T16:00:45;3.27;;;1.67;;
13335;SDS011;6737;51.480;11.962;2023-01-28T16:03:17;2.23;;;1.20;;
13335;SDS011;6737;51.480;11.962;2023-01-28T16:05:53;2.77;;;1.40;;
13335;SDS011;6737;51.480;11.962;2023-01-28T16:08:54;3.87;;;1.43;;
13335;SDS011;6737;51.480;11.962;2023-01-28T16:11:31;4.30;;;1.40;;
13335;SDS011;6737;51.480;11.962;2023-01-28T16:14:01;3.10;;;1.50;;
13335;SDS011;6737;51.480;11.962;2023-01-28T16:16:34;2.90;;;1.27;;
13335;SDS011;6737;51.480;11.962;2023-01-28T16:19:03;2.13;;;1.37;;
13335;SDS011;6737;51.480;11.962;2023-01-28T16:21:34;2.60;;;1.60;;
13335;SDS011;6737;51.480;11.962;2023-01-28T16:24:26;3.10;;;1.50;;
13335;SDS011;6737;51.480;11.962;2023-01-28T16:26:58;3.83;;;1.40;;
13335;SDS011;6737;51.480;11.962;2023-01-28T16:29:28;3.70;;;1.33;;
13335;SDS011;6737;51.480;11.962;2023-01-28T16:31:55;4.70;;;1.37;;
13335;SDS011;6737;51.480;11.962;2023-01-28T16:34:23;2.40;;;1.30;;
13335;SDS011;6737;51.480;11.962;2023-01-28T16:36:57;2.27;;;1.43;;
13335;SDS011;6737;51.480;11.962;2023-01-28T16:39:24;1.40;;;1.10;;
13335;SDS011;6737;51.480;11.962;2023-01-28T16:41:50;2.13;;;1.10;;
13335;SDS011;6737;51.480;11.962;2023-01-28T16:44:16;2.63;;;1.20;;
13335;SDS011;6737;51.480;11.962;2023-01-28T16:46:42;1.60;;;1.10;;
13335;SDS011;6737;51.480;11.962;2023-01-28T16:49:08;5.53;;;1.10;;
13335;SDS011;6737;51.480;11.962;2023-01-28T16:51:35;3.97;;;1.43;;
13335;SDS011;6737;51.480;11.962;2023-01-28T16:54:02;2.23;;;1.40;;
13335;SDS011;6737;51.480;11.962;2023-01-28T16:56:29;5.17;;;1.50;;
13335;SDS011;6737;51.480;11.962;2023-01-28T16:58:55;2.73;;;1.40;;
13335;SDS011;6737;51.480;11.962;2023-01-28T17:01:21;3.70;;;1.40;;
13335;SDS011;6737;51.480;11.962;2023-01-28T17:03:47;3.80;;;1.60;;
13335;SDS011;6737;51.480;11.962;2023-01-28T17:06:16;2.60;;;1.60;;
13335;SDS011;6737;51.480;11.962;2023-01-28T17:08:43;2.63;;;1.60;;
13335;SDS011;6737;51.480;11.962;2023-01-28T17:11:10;3.10;;;2.00;;
13335;SDS011;6737;51.480;11.962;2023-01-28T17:13:37;2.87;;;1.70;;
13335;SDS011;6737;51.480;11.962;2023-01-28T17:16:03;3.27;;;2.03;;
13335;SDS011;6737;51.480;11.962;2023-01-28T17:18:30;2.60;;;1.70;;
13335;SDS011;6737;51.480;11.962;2023-01-28T17:20:59;4.10;;;2.30;;
13335;SDS011;6737;51.480;11.962;2023-01-28T17:23:26;2.73;;;1.90;;
13335;SDS011;6737;51.480;11.962;2023-01-28T17:25:52;2.80;;;2.00;;